CheckWX is a tool to help pilots better visualize weather data.  It is not intended as a substitute for an official pre-flight weather briefing.

21:20:07 UTC

EGVO METAR
RAF Odiham Airport
Odiham, United Kingdom
Current

30 mins ago

EGVO 192050Z 10004KT CAVOK 12/07 Q1030 NOSIG RMK BLU BLU
Observed
Sep-19 @ 20:50 UTC
Wind
  • 100° at 4 KTS
Visibility
10,000+ meters
Flight Rules
VFR
Cloud Levels
  • Clear skies
Temperature
12°C / 54°F
Dewpoint
C / 45°F
Humidity
72%
Altimeter
30.41" Hg
Pressure
1029.92 hPa
Previous

1 hour ago

EGVO 192019Z 11005KT CAVOK 13/09 Q1030 NOSIG RMK BLU BLU
Observed
Sep-19 @ 20:19 UTC
Wind
  • 110° at 5 KTS
Visibility
10,000+ meters
Flight Rules
VFR
Cloud Levels
  • Clear skies
Temperature
13°C / 55°F
Dewpoint
C / 48°F
Humidity
77%
Altimeter
30.41" Hg
Pressure
1029.92 hPa
Previous

2 hours ago

EGVO 191950Z 11006KT CAVOK 13/08 Q1030 NOSIG RMK BLU BLU
Observed
Sep-19 @ 19:50 UTC
Wind
  • 110° at 6 KTS
Visibility
10,000+ meters
Flight Rules
VFR
Cloud Levels
  • Clear skies
Temperature
13°C / 55°F
Dewpoint
C / 46°F
Humidity
72%
Altimeter
30.41" Hg
Pressure
1029.92 hPa